Terminal Aerodrome Forecast
Issued by NWS Medford, OR

Home | Current Version | Previous Version | Text Only | Print | Product List | Glossary On
Versions: 1 2 3 4 5 6 7 8 9 10 11 12
815
FTUS46 KMFR 221124
TAFMFR
TAF
KMFR 221124Z 2212/2312 00000KT P6SM SKC
     FM222300 32010KT P6SM SKC
     FM230400 VRB02KT P6SM SKC=

USA.gov is the U.S. government's official web portal to all federal, state and local government web resources and services.